Time;durP1;ratioP1;P1;durP2;ratioP2;P2;SDS_P1;SDS_P2;PMS_P1;PMS_P2;Temp;Humidity;BMP_temperature;BMP_pressure;BME280_temperature;BME280_humidity;BME280_pressure;Samples;Min_cycle;Max_cycle;Signal;HPM_P1;HPM_P2
2021/06/01 00:01:58;;;;;;;3.92;2.75;;;15.00;90.40;;;;;;5011550;28;20066;-78
2021/06/01 00:04:24;;;;;;;3.65;2.60;;;15.00;90.60;;;;;;5012540;28;20048;-78
2021/06/01 00:06:50;;;;;;;4.10;2.75;;;14.80;91.10;;;;;;5012534;28;20072;-78
2021/06/01 00:09:18;;;;;;;7.30;2.80;;;14.90;90.70;;;;;;5012418;28;20092;-78
2021/06/01 00:11:44;;;;;;;3.47;2.47;;;14.80;90.70;;;;;;5012492;28;20049;-78
2021/06/01 00:14:11;;;;;;;5.10;3.10;;;14.70;90.70;;;;;;5012300;28;20098;-78
2021/06/01 00:16:37;;;;;;;3.58;3.05;;;14.90;90.50;;;;;;5012337;28;20077;-79
2021/06/01 00:19:07;;;;;;;5.57;2.40;;;14.90;90.20;;;;;;5012291;28;20029;-79
2021/06/01 00:21:34;;;;;;;3.42;2.17;;;14.80;90.40;;;;;;5012053;28;20042;-78
2021/06/01 00:24:02;;;;;;;4.00;3.17;;;14.70;91.00;;;;;;5012168;28;20044;-78
2021/06/01 00:26:27;;;;;;;15.00;3.63;;;14.60;90.60;;;;;;5012160;28;20025;-79
2021/06/01 00:28:53;;;;;;;3.92;2.58;;;14.70;90.50;;;;;;5012071;28;20048;-78
2021/06/01 00:31:19;;;;;;;3.72;2.88;;;14.80;90.50;;;;;;5012061;28;20394;-78
2021/06/01 00:33:44;;;;;;;3.28;2.55;;;14.80;90.40;;;;;;5011878;28;20033;-78
2021/06/01 00:36:10;;;;;;;7.90;3.10;;;14.70;90.70;;;;;;5010702;28;20388;-79
2021/06/01 00:38:36;;;;;;;2.72;2.50;;;14.60;90.60;;;;;;5011858;28;20041;-79
2021/06/01 00:41:03;;;;;;;3.13;2.72;;;14.60;90.70;;;;;;5011745;28;20109;-78
2021/06/01 00:43:32;;;;;;;3.50;2.80;;;14.60;90.80;;;;;;5027508;28;20594;-79
2021/06/01 00:46:01;;;;;;;3.20;2.42;;;14.60;90.70;;;;;;5011693;28;20030;-79
2021/06/01 00:48:27;;;;;;;4.10;2.60;;;14.40;91.10;;;;;;5011896;28;20018;-79
2021/06/01 00:50:53;;;;;;;3.25;2.55;;;14.50;91.40;;;;;;5011669;28;20036;-79
2021/06/01 00:53:19;;;;;;;4.20;2.97;;;14.30;91.60;;;;;;5010669;28;20166;-78
2021/06/01 00:55:47;;;;;;;3.95;2.80;;;14.30;91.90;;;;;;5011604;28;20054;-79
2021/06/01 00:58:12;;;;;;;6.47;2.60;;;14.20;92.30;;;;;;5010846;28;20025;-79
2021/06/01 01:03:12;;;;;;;4.63;2.47;;;14.10;92.90;;;;;;5011909;28;20061;-80
2021/06/01 01:05:47;;;;;;;2.95;2.45;;;14.00;93.10;;;;;;5011600;28;20060;-79
2021/06/01 01:10:58;;;;;;;4.85;3.10;;;13.90;93.40;;;;;;5013594;28;20094;-79
2021/06/01 01:13:24;;;;;;;6.10;2.83;;;13.90;93.40;;;;;;5015859;28;20132;-79
2021/06/01 01:15:51;;;;;;;3.72;2.92;;;13.80;93.60;;;;;;5015663;28;20109;-80
2021/06/01 01:18:23;;;;;;;5.53;2.83;;;13.70;93.90;;;;;;5015614;28;20026;-78
2021/06/01 01:21:07;;;;;;;5.70;2.90;;;13.70;93.60;;;;;;5033604;28;20025;-80
2021/06/01 01:23:36;;;;;;;3.97;2.72;;;13.80;93.80;;;;;;5016090;28;20057;-77
2021/06/01 01:26:34;;;;;;;3.35;3.00;;;13.70;93.70;;;;;;5015292;28;20362;-78
2021/06/01 01:29:09;;;;;;;3.67;2.67;;;13.60;94.00;;;;;;5015306;28;20029;-77
2021/06/01 01:31:58;;;;;;;2.95;2.28;;;13.50;94.40;;;;;;5015520;28;20120;-79
2021/06/01 01:34:26;;;;;;;4.82;2.85;;;13.40;94.90;;;;;;5015494;28;20108;-79
2021/06/01 01:36:54;;;;;;;3.85;2.58;;;13.30;96.00;;;;;;5015256;28;20033;-79
2021/06/01 01:39:23;;;;;;;4.22;3.67;;;13.20;96.80;;;;;;5015143;28;20030;-79
2021/06/01 01:41:50;;;;;;;4.93;3.30;;;13.30;97.60;;;;;;5015167;28;20112;-79
2021/06/01 01:44:18;;;;;;;3.25;2.95;;;13.30;97.80;;;;;;5013985;28;20427;-80
2021/06/01 01:49:16;;;;;;;5.93;3.30;;;13.10;98.90;;;;;;5014990;28;20034;-79
2021/06/01 01:51:47;;;;;;;4.72;3.10;;;13.10;99.10;;;;;;5014929;28;20037;-80
2021/06/01 01:54:22;;;;;;;4.22;3.35;;;13.10;99.30;;;;;;5014913;28;20018;-80
2021/06/01 01:56:53;;;;;;;5.78;3.70;;;13.00;99.80;;;;;;5014816;28;20029;-78
2021/06/01 01:59:24;;;;;;;5.25;3.17;;;13.10;99.90;;;;;;5014750;28;20094;-79
2021/06/01 02:01:54;;;;;;;5.88;3.20;;;13.00;99.90;;;;;;5014590;28;20455;-79
2021/06/01 02:04:29;;;;;;;3.00;2.70;;;12.90;99.90;;;;;;5014661;28;20049;-79
2021/06/01 02:06:55;;;;;;;4.13;3.08;;;13.00;99.90;;;;;;5014697;28;20355;-78
2021/06/01 02:09:24;;;;;;;5.10;3.10;;;12.90;99.90;;;;;;5010188;28;20109;-78
2021/06/01 02:11:50;;;;;;;5.05;3.30;;;12.90;99.90;;;;;;4995956;28;20085;-78
2021/06/01 02:14:20;;;;;;;5.40;2.97;;;12.90;99.90;;;;;;4995337;28;20034;-78
2021/06/01 02:16:46;;;;;;;6.35;3.10;;;12.90;99.90;;;;;;4995069;28;20041;-79
2021/06/01 02:19:15;;;;;;;4.90;3.03;;;12.80;99.90;;;;;;4994833;28;20031;-78
2021/06/01 02:24:24;;;;;;;6.57;3.38;;;12.60;99.90;;;;;;5014769;28;20034;-79
2021/06/01 02:27:12;;;;;;;3.85;2.83;;;12.60;99.90;;;;;;5014423;28;20060;-78
2021/06/01 02:29:59;;;;;;;4.20;2.83;;;12.70;99.90;;;;;;5014407;28;20026;-77
2021/06/01 02:32:36;;;;;;;4.70;2.92;;;12.60;99.90;;;;;;5013323;28;20519;-78
2021/06/01 02:35:07;;;;;;;3.95;2.80;;;12.40;99.90;;;;;;5013051;28;20119;-78
2021/06/01 02:37:32;;;;;;;4.43;3.22;;;12.40;99.90;;;;;;5014473;28;20026;-77
2021/06/01 02:40:01;;;;;;;6.55;3.30;;;12.30;99.90;;;;;;5014058;28;20033;-77
2021/06/01 02:42:29;;;;;;;4.55;3.40;;;12.50;99.90;;;;;;5013925;28;20026;-77
2021/06/01 02:44:55;;;;;;;3.83;3.20;;;12.30;99.90;;;;;;5014111;28;20560;-77
2021/06/01 02:47:21;;;;;;;3.95;2.50;;;12.30;99.90;;;;;;5013892;28;20025;-77
2021/06/01 02:49:49;;;;;;;3.33;2.90;;;12.20;99.90;;;;;;5013793;28;20469;-78
2021/06/01 02:52:15;;;;;;;5.43;3.50;;;12.20;99.90;;;;;;5014137;28;20038;-78
2021/06/01 02:54:42;;;;;;;3.95;2.90;;;12.30;99.90;;;;;;5016042;28;20481;-78
2021/06/01 02:57:11;;;;;;;8.52;2.97;;;12.20;99.90;;;;;;5015553;28;20109;-78
2021/06/01 02:59:39;;;;;;;9.45;3.42;;;12.20;99.90;;;;;;5023521;28;20029;-78
2021/06/01 03:02:05;;;;;;;3.80;2.78;;;12.20;99.90;;;;;;5033509;28;20071;-78
2021/06/01 03:04:32;;;;;;;4.25;3.22;;;12.20;99.90;;;;;;5033418;28;20049;-78
2021/06/01 03:07:00;;;;;;;4.80;3.20;;;12.20;99.90;;;;;;5033472;28;20096;-78
2021/06/01 03:09:26;;;;;;;6.25;3.30;;;12.10;99.90;;;;;;5033311;28;20034;-78
2021/06/01 03:11:53;;;;;;;6.93;3.58;;;12.10;99.90;;;;;;5032146;28;20052;-78
2021/06/01 03:14:20;;;;;;;4.50;3.05;;;12.00;99.90;;;;;;5033213;28;20025;-78
2021/06/01 03:16:45;;;;;;;4.97;3.17;;;11.90;99.90;;;;;;5033092;28;20040;-78
2021/06/01 03:19:11;;;;;;;4.22;3.10;;;11.90;99.90;;;;;;5032925;28;20396;-78
2021/06/01 03:21:39;;;;;;;6.05;3.40;;;12.10;99.90;;;;;;5025260;28;20057;-82
2021/06/01 03:24:05;;;;;;;7.30;3.00;;;11.90;99.90;;;;;;5013485;28;20150;-82
2021/06/01 03:26:33;;;;;;;6.82;3.80;;;12.00;99.90;;;;;;5013568;28;20065;-82
2021/06/01 03:28:59;;;;;;;5.18;2.92;;;12.00;99.90;;;;;;5013485;28;20471;-84
2021/06/01 03:31:31;;;;;;;4.32;3.65;;;12.00;99.90;;;;;;5013743;28;20130;-82
2021/06/01 03:33:56;;;;;;;5.75;3.30;;;12.00;99.90;;;;;;5013272;28;20024;-82
2021/06/01 03:36:24;;;;;;;5.22;3.20;;;12.00;99.90;;;;;;5013293;28;20025;-81
2021/06/01 03:38:51;;;;;;;9.52;3.83;;;12.00;99.90;;;;;;5012247;28;20610;-82
2021/06/01 03:41:21;;;;;;;5.15;3.05;;;12.10;99.90;;;;;;5013443;28;20030;-82
2021/06/01 03:43:47;;;;;;;4.30;3.25;;;12.00;99.90;;;;;;5012500;28;20474;-82
2021/06/01 03:46:15;;;;;;;4.93;3.20;;;11.90;99.90;;;;;;5012014;28;20026;-82
2021/06/01 03:48:41;;;;;;;5.10;3.20;;;12.00;99.90;;;;;;5013491;28;20086;-82
2021/06/01 03:51:08;;;;;;;4.47;3.75;;;12.00;99.90;;;;;;5013261;28;20090;-82
2021/06/01 03:53:34;;;;;;;4.07;3.13;;;12.00;99.90;;;;;;5013047;28;20030;-81
2021/06/01 03:56:00;;;;;;;7.78;3.63;;;12.20;99.90;;;;;;5013471;28;20042;-82
2021/06/01 03:58:28;;;;;;;5.80;3.30;;;12.20;99.90;;;;;;5011778;28;20033;-82
2021/06/01 04:00:56;;;;;;;5.07;4.10;;;12.30;99.90;;;;;;5013260;28;20018;-82
2021/06/01 04:03:22;;;;;;;4.82;3.55;;;12.30;99.90;;;;;;5012714;28;20022;-81
2021/06/01 04:05:47;;;;;;;8.85;3.70;;;12.40;99.90;;;;;;5012543;28;20041;-81
2021/06/01 04:08:13;;;;;;;6.43;3.90;;;12.40;99.90;;;;;;5012754;28;20018;-82
2021/06/01 04:10:39;;;;;;;8.90;4.18;;;12.40;99.90;;;;;;5012587;28;20026;-81
2021/06/01 04:13:07;;;;;;;6.07;3.40;;;12.50;99.90;;;;;;5012671;28;20037;-82
2021/06/01 04:15:32;;;;;;;5.75;3.00;;;12.60;99.90;;;;;;5012712;28;20034;-82
2021/06/01 04:18:00;;;;;;;5.35;4.03;;;12.70;99.90;;;;;;5012862;28;20052;-81
2021/06/01 04:20:30;;;;;;;5.60;3.63;;;12.60;99.90;;;;;;5011687;28;20439;-79
2021/06/01 04:23:00;;;;;;;3.83;3.22;;;12.70;99.90;;;;;;5010751;28;20046;-73
2021/06/01 04:25:25;;;;;;;6.60;3.50;;;12.80;99.90;;;;;;5011900;28;20041;-73
2021/06/01 04:27:51;;;;;;;6.15;3.60;;;12.90;99.90;;;;;;5011123;28;20122;-74
2021/06/01 04:30:19;;;;;;;5.28;3.88;;;12.90;99.90;;;;;;5011784;28;20076;-73
2021/06/01 04:32:45;;;;;;;4.43;3.25;;;13.00;99.90;;;;;;5011746;28;20030;-74
2021/06/01 04:35:11;;;;;;;7.18;3.95;;;13.10;99.90;;;;;;5011651;28;20072;-72
2021/06/01 04:37:41;;;;;;;5.68;3.05;;;13.10;99.90;;;;;;5011567;28;20054;-72
2021/06/01 04:40:13;;;;;;;5.57;3.33;;;13.20;99.90;;;;;;5022798;28;20110;-73
2021/06/01 04:42:44;;;;;;;4.00;3.17;;;13.20;99.90;;;;;;5011379;28;20057;-73
2021/06/01 04:45:12;;;;;;;3.88;2.83;;;13.20;99.90;;;;;;5026605;28;20053;-73
2021/06/01 04:47:37;;;;;;;6.57;3.33;;;13.30;99.90;;;;;;5011346;28;20072;-74
2021/06/01 04:50:04;;;;;;;5.20;3.55;;;13.20;99.90;;;;;;5026813;28;20065;-74
2021/06/01 04:52:32;;;;;;;5.22;3.40;;;13.30;99.90;;;;;;5011239;28;20105;-75
2021/06/01 04:54:57;;;;;;;3.40;3.10;;;13.30;99.90;;;;;;5011422;28;20026;-73
2021/06/01 04:57:23;;;;;;;6.75;3.83;;;13.40;99.90;;;;;;4994132;28;20092;-72
2021/06/01 04:59:49;;;;;;;4.85;3.15;;;13.50;99.90;;;;;;5011489;28;20022;-72
2021/06/01 05:02:14;;;;;;;4.03;3.38;;;13.40;99.90;;;;;;5010992;28;20094;-72
2021/06/01 05:04:40;;;;;;;5.43;3.05;;;13.40;99.90;;;;;;5011151;28;20258;-74
2021/06/01 05:07:05;;;;;;;4.28;3.22;;;13.50;99.90;;;;;;5010184;28;20060;-73
2021/06/01 05:09:31;;;;;;;5.32;3.45;;;13.50;99.90;;;;;;5026632;28;20484;-73
2021/06/01 05:11:57;;;;;;;6.53;3.53;;;13.70;99.90;;;;;;5010939;28;20108;-71
2021/06/01 05:14:27;;;;;;;3.78;2.72;;;13.80;99.90;;;;;;5026098;28;20022;-74
2021/06/01 05:16:55;;;;;;;5.43;3.17;;;13.90;99.90;;;;;;5011173;28;20033;-75
2021/06/01 05:19:21;;;;;;;5.90;3.03;;;13.90;99.90;;;;;;5009706;28;20352;-73
2021/06/01 05:21:51;;;;;;;7.53;3.53;;;14.00;99.90;;;;;;5009402;28;20594;-75
2021/06/01 05:24:19;;;;;;;5.50;3.05;;;14.10;99.90;;;;;;5010933;28;20370;-71
2021/06/01 05:26:47;;;;;;;4.10;3.00;;;14.20;99.90;;;;;;5011020;28;20161;-73
2021/06/01 05:29:15;;;;;;;4.78;2.83;;;14.30;99.90;;;;;;5010942;28;20112;-72
2021/06/01 05:31:57;;;;;;;5.88;3.35;;;14.40;99.90;;;;;;5010710;28;20091;-73
2021/06/01 05:34:27;;;;;;;8.88;3.22;;;14.40;99.90;;;;;;5011640;28;20048;-74
2021/06/01 05:36:55;;;;;;;6.25;2.90;;;14.50;99.90;;;;;;5011219;28;20080;-73
2021/06/01 05:39:23;;;;;;;6.00;3.17;;;14.60;99.90;;;;;;5010970;28;20105;-71
2021/06/01 05:41:51;;;;;;;5.78;3.28;;;14.70;99.20;;;;;;5025960;28;20028;-73
2021/06/01 05:44:17;;;;;;;8.48;3.70;;;14.70;99.80;;;;;;5011016;28;20057;-72
2021/06/01 05:46:45;;;;;;;6.35;3.00;;;14.90;99.30;;;;;;5010732;28;20072;-73
2021/06/01 05:49:10;;;;;;;6.82;3.00;;;15.00;99.20;;;;;;5026105;28;20022;-74
2021/06/01 05:51:41;;;;;;;5.85;3.42;;;15.10;98.80;;;;;;5010602;28;20022;-74
2021/06/01 05:54:10;;;;;;;6.63;3.30;;;15.10;98.70;;;;;;5010986;28;20049;-74
2021/06/01 05:56:36;;;;;;;5.80;3.60;;;15.20;98.70;;;;;;5012405;28;20026;-73
2021/06/01 05:59:03;;;;;;;5.35;3.30;;;15.30;98.40;;;;;;5014435;28;20049;-72
2021/06/01 06:01:29;;;;;;;5.32;3.05;;;15.40;97.60;;;;;;5014498;28;20610;-72
2021/06/01 06:03:54;;;;;;;4.57;3.28;;;15.50;97.70;;;;;;5014227;28;20114;-74
2021/06/01 06:06:20;;;;;;;7.28;3.30;;;15.60;97.30;;;;;;5014337;28;20487;-73
2021/06/01 06:08:47;;;;;;;6.50;3.28;;;15.70;97.60;;;;;;5014218;28;20046;-73
2021/06/01 06:11:12;;;;;;;3.60;2.88;;;15.70;96.80;;;;;;5011237;28;20029;-74
2021/06/01 06:13:38;;;;;;;4.93;3.22;;;15.90;96.60;;;;;;5009717;28;20030;-76
2021/06/01 06:16:07;;;;;;;7.75;3.05;;;16.00;96.60;;;;;;5013439;28;20101;-74
2021/06/01 06:18:37;;;;;;;4.90;2.72;;;16.10;96.50;;;;;;5015219;28;20359;-75
2021/06/01 06:21:08;;;;;;;3.22;2.90;;;16.20;96.50;;;;;;5033239;28;20025;-76
2021/06/01 06:23:45;;;;;;;5.37;3.07;;;16.40;95.30;;;;;;5013537;28;20042;-76
2021/06/01 06:26:15;;;;;;;6.90;3.70;;;16.40;96.10;;;;;;5013052;28;20285;-76
2021/06/01 06:28:41;;;;;;;6.50;3.90;;;16.60;96.00;;;;;;5014215;28;20050;-76
2021/06/01 06:31:07;;;;;;;6.05;2.75;;;16.70;95.40;;;;;;5013897;28;20060;-76
2021/06/01 06:33:33;;;;;;;4.50;3.38;;;16.80;94.60;;;;;;5014119;28;20548;-75
2021/06/01 06:36:01;;;;;;;6.78;3.20;;;16.90;94.50;;;;;;5014193;28;20325;-75
2021/06/01 06:38:29;;;;;;;3.47;2.85;;;17.00;94.40;;;;;;5013451;28;20077;-75
2021/06/01 06:41:15;;;;;;;7.53;2.70;;;17.20;94.10;;;;;;5014204;28;20057;-76
2021/06/01 06:43:49;;;;;;;4.25;2.88;;;17.50;93.40;;;;;;5009729;28;20042;-76
2021/06/01 06:46:25;;;;;;;4.60;2.80;;;18.00;92.40;;;;;;5009684;28;20058;-76
2021/06/01 06:48:53;;;;;;;4.25;3.03;;;18.80;90.20;;;;;;5013902;28;20022;-76
2021/06/01 06:51:26;;;;;;;4.05;3.17;;;19.40;89.60;;;;;;5013836;28;20052;-76
2021/06/01 06:53:53;;;;;;;7.05;3.00;;;19.70;86.50;;;;;;5013729;28;20037;-76
2021/06/01 06:56:23;;;;;;;3.78;3.08;;;20.80;82.70;;;;;;5013741;28;20037;-76
2021/06/01 06:58:52;;;;;;;5.15;3.03;;;21.70;77.90;;;;;;5013579;28;20462;-75
2021/06/01 07:01:20;;;;;;;5.05;3.00;;;22.30;75.50;;;;;;5013498;28;20040;-76
2021/06/01 07:03:47;;;;;;;4.43;2.67;;;22.50;72.00;;;;;;5013571;28;20072;-74
2021/06/01 07:06:13;;;;;;;4.25;2.67;;;22.50;71.40;;;;;;5013713;28;20030;-73
2021/06/01 07:08:38;;;;;;;5.07;2.80;;;22.90;69.70;;;;;;5012846;28;20339;-73
2021/06/01 07:11:04;;;;;;;3.72;2.65;;;23.00;68.50;;;;;;5013305;28;20462;-75
2021/06/01 07:13:56;;;;;;;11.30;3.35;;;23.10;67.30;;;;;;5013392;28;20029;-72
2021/06/01 07:16:22;;;;;;;3.90;2.63;;;23.20;66.20;;;;;;4992147;28;20038;-78
2021/06/01 07:18:52;;;;;;;4.32;3.03;;;23.40;66.80;;;;;;5012892;28;20114;-74
2021/06/01 07:21:18;;;;;;;5.85;3.65;;;23.40;65.80;;;;;;5012842;28;20042;-73
2021/06/01 07:23:46;;;;;;;4.72;2.70;;;23.60;65.30;;;;;;5013006;28;20316;-76
2021/06/01 07:26:12;;;;;;;6.72;3.28;;;24.10;64.40;;;;;;5013033;28;20367;-75
2021/06/01 07:28:38;;;;;;;6.85;2.90;;;24.10;66.40;;;;;;5012752;28;20026;-76
2021/06/01 07:31:05;;;;;;;4.20;2.63;;;25.00;63.60;;;;;;5013179;28;20463;-75
2021/06/01 07:33:31;;;;;;;3.20;2.88;;;25.20;60.80;;;;;;5012484;28;20348;-76
2021/06/01 07:35:57;;;;;;;6.45;2.22;;;24.70;60.70;;;;;;5012668;28;20029;-74
2021/06/01 07:38:26;;;;;;;3.17;2.88;;;24.60;61.80;;;;;;5012828;28;20040;-79
2021/06/01 07:40:54;;;;;;;4.50;3.22;;;24.90;60.90;;;;;;5012966;28;20029;-74
2021/06/01 07:43:22;;;;;;;2.80;2.58;;;25.60;59.50;;;;;;5012463;28;20392;-74
2021/06/01 07:45:50;;;;;;;2.95;2.65;;;25.30;60.30;;;;;;5012470;28;20470;-75
2021/06/01 07:48:20;;;;;;;4.57;2.60;;;25.80;60.40;;;;;;5027466;28;20061;-75
2021/06/01 07:50:48;;;;;;;4.38;2.80;;;26.70;58.60;;;;;;5012340;28;20018;-77
2021/06/01 07:53:14;;;;;;;3.85;2.70;;;26.90;58.30;;;;;;5013170;28;20026;-75
2021/06/01 07:55:40;;;;;;;4.60;2.58;;;28.00;56.30;;;;;;5012488;28;20041;-76
2021/06/01 07:58:06;;;;;;;3.00;2.67;;;28.90;55.10;;;;;;5012858;28;20060;-77
2021/06/01 08:00:32;;;;;;;6.50;2.70;;;29.30;54.20;;;;;;5012488;28;20311;-77
2021/06/01 08:02:57;;;;;;;4.53;2.00;;;29.70;53.50;;;;;;5013079;28;20029;-78
2021/06/01 08:05:26;;;;;;;4.15;2.85;;;30.50;51.80;;;;;;5012968;28;20026;-73
2021/06/01 08:07:54;;;;;;;5.18;2.47;;;30.50;51.20;;;;;;5012345;28;20376;-74
2021/06/01 08:10:22;;;;;;;3.00;2.13;;;30.40;50.20;;;;;;5012399;28;20354;-76
2021/06/01 08:12:49;;;;;;;10.98;2.30;;;30.20;51.60;;;;;;5012403;28;20022;-76
2021/06/01 08:15:21;;;;;;;4.25;2.10;;;29.70;50.20;;;;;;5011985;28;20029;-75
2021/06/01 08:17:50;;;;;;;3.75;2.28;;;27.90;53.30;;;;;;5011401;28;20029;-74
2021/06/01 08:20:27;;;;;;;4.80;2.40;;;28.30;52.00;;;;;;5010846;28;20114;-78
2021/06/01 08:22:56;;;;;;;4.22;2.38;;;29.00;50.90;;;;;;5011929;28;20056;-78
2021/06/01 08:25:25;;;;;;;2.67;2.47;;;28.60;51.10;;;;;;5011713;28;20026;-76
2021/06/01 08:27:54;;;;;;;4.38;2.40;;;28.00;50.60;;;;;;5012428;28;20014;-75
2021/06/01 08:30:20;;;;;;;3.15;2.50;;;27.70;52.00;;;;;;5010308;28;20080;-78
2021/06/01 08:32:46;;;;;;;3.42;1.92;;;28.20;49.80;;;;;;5011959;28;20118;-76
2021/06/01 08:35:14;;;;;;;3.75;2.10;;;28.20;51.40;;;;;;5011438;28;20054;-75
2021/06/01 08:37:42;;;;;;;5.47;2.20;;;29.20;50.10;;;;;;5011830;28;20423;-74
2021/06/01 08:40:08;;;;;;;2.60;2.38;;;30.50;48.60;;;;;;5010480;28;20029;-75
2021/06/01 08:42:36;;;;;;;3.20;2.00;;;31.50;46.70;;;;;;5011537;28;20029;-76
2021/06/01 08:45:05;;;;;;;2.63;2.20;;;30.90;46.50;;;;;;5011389;28;20025;-76
2021/06/01 08:47:34;;;;;;;2.40;2.20;;;30.60;46.00;;;;;;5011602;28;20087;-77
2021/06/01 08:50:02;;;;;;;3.45;1.80;;;31.10;46.80;;;;;;5011319;28;20046;-76
2021/06/01 08:52:28;;;;;;;4.07;2.00;;;31.70;43.90;;;;;;5011318;28;20474;-79
2021/06/01 08:54:55;;;;;;;3.72;2.33;;;30.90;45.40;;;;;;5011227;28;20029;-73
2021/06/01 08:57:21;;;;;;;4.45;2.47;;;29.50;46.30;;;;;;5011490;28;20022;-73
2021/06/01 08:59:46;;;;;;;3.78;2.55;;;29.70;47.10;;;;;;5011241;28;20026;-73
2021/06/01 09:02:19;;;;;;;1.83;1.73;;;30.80;46.70;;;;;;5011223;28;20285;-75
2021/06/01 09:04:50;;;;;;;3.25;2.00;;;31.10;44.30;;;;;;5010939;28;20026;-74
2021/06/01 09:07:24;;;;;;;;;;;30.00;44.70;;;;;;5012050;28;20429;-74
2021/06/01 09:10:20;;;;;;;2.00;1.83;;;29.40;45.00;;;;;;5011271;28;20243;-76
2021/06/01 09:21:50;;;;;;;2.65;2.15;;;29.10;44.90;;;;;;5011303;28;20497;-74
2021/06/01 09:24:16;;;;;;;2.45;1.80;;;30.60;44.10;;;;;;5008359;28;20056;-74
2021/06/01 09:29:52;;;;;;;5.28;1.92;;;30.30;43.90;;;;;;4998846;28;20030;-73
2021/06/01 09:32:18;;;;;;;2.10;2.00;;;30.30;44.10;;;;;;5014297;28;20072;-76
2021/06/01 09:34:45;;;;;;;2.15;1.95;;;30.20;44.40;;;;;;5014891;28;20030;-77
2021/06/01 09:37:23;;;;;;;2.55;2.10;;;30.50;43.60;;;;;;5015049;28;20049;-74
2021/06/01 09:40:10;;;;;;;1.90;1.70;;;29.70;43.90;;;;;;5013624;28;20026;-75
2021/06/01 09:42:38;;;;;;;2.20;1.73;;;29.50;44.60;;;;;;5030297;28;20033;-76
2021/06/01 09:45:20;;;;;;;2.47;1.83;;;29.40;44.30;;;;;;5014690;28;20022;-77
2021/06/01 09:47:57;;;;;;;2.30;2.10;;;28.50;45.60;;;;;;5015032;28;20096;-77
2021/06/01 09:53:03;;;;;;;2.90;1.88;;;30.10;44.30;;;;;;5014773;28;20103;-76
2021/06/01 09:57:59;;;;;;;2.45;2.25;;;32.20;41.90;;;;;;5014799;28;20077;-76
2021/06/01 10:00:27;;;;;;;1.95;1.77;;;30.50;43.20;;;;;;5014811;28;20030;-76
2021/06/01 10:03:18;;;;;;;3.03;2.20;;;30.20;44.10;;;;;;5014662;28;20550;-74
2021/06/01 10:05:47;;;;;;;3.78;2.22;;;30.50;43.50;;;;;;5014338;28;20034;-74
2021/06/01 10:08:26;;;;;;;4.32;2.38;;;31.50;42.70;;;;;;5014711;28;20103;-75
2021/06/01 10:10:58;;;;;;;3.45;2.50;;;31.90;42.30;;;;;;5014183;28;20594;-73
2021/06/01 10:13:29;;;;;;;1.80;1.70;;;30.30;43.30;;;;;;5014518;28;20167;-75
2021/06/01 10:15:57;;;;;;;3.60;1.95;;;31.50;44.20;;;;;;5014338;28;20030;-74
2021/06/01 10:18:28;;;;;;;1.80;1.70;;;32.00;42.00;;;;;;5014605;28;20049;-75
2021/06/01 10:20:56;;;;;;;3.42;1.90;;;31.30;43.30;;;;;;5014046;28;20017;-75
2021/06/01 10:23:27;;;;;;;3.45;1.90;;;32.20;43.30;;;;;;5014134;28;20073;-74
2021/06/01 10:25:54;;;;;;;3.90;2.10;;;32.70;42.50;;;;;;5014145;28;20531;-76
2021/06/01 10:28:52;;;;;;;1.77;1.48;;;32.80;42.30;;;;;;5013728;28;20026;-76
2021/06/01 10:31:15;;;;;;;2.75;2.00;;;34.20;42.10;;;;;;5012620;28;20566;-75
2021/06/01 10:33:51;;;;;;;3.28;2.60;;;35.40;39.60;;;;;;5014117;28;20036;-74
2021/06/01 10:50:24;;;;;;;3.28;1.98;;;33.10;40.60;;;;;;5013936;28;20103;-75
2021/06/01 10:53:07;;;;;;;2.33;1.98;;;31.90;41.40;;;;;;5012704;28;20060;-76
2021/06/01 10:55:55;;;;;;;2.72;1.85;;;31.70;41.30;;;;;;5013606;28;20033;-76
2021/06/01 10:58:43;;;;;;;4.05;2.10;;;32.50;41.00;;;;;;5013499;28;20022;-75
2021/06/01 11:04:31;;;;;;;3.30;2.15;;;33.60;41.50;;;;;;5013462;28;20092;-76
2021/06/01 11:11:59;;;;;;;1.90;1.80;;;33.70;40.20;;;;;;4994030;28;20034;-75
2021/06/01 11:14:33;;;;;;;3.10;2.13;;;33.00;40.00;;;;;;4993464;28;20090;-76
2021/06/01 11:17:01;;;;;;;1.98;1.73;;;33.40;40.30;;;;;;5012959;28;20160;-71
2021/06/01 11:19:59;;;;;;;3.38;2.13;;;34.30;41.00;;;;;;5013205;28;20455;-80
2021/06/01 11:22:40;;;;;;;1.95;1.80;;;35.80;38.80;;;;;;5013092;28;20119;-77
2021/06/01 11:33:40;;;;;;;2.00;1.80;;;32.50;40.40;;;;;;5013608;28;20068;-78
2021/06/01 11:36:13;;;;;;;3.58;2.28;;;31.50;40.40;;;;;;5013328;28;20054;-78
2021/06/01 11:44:24;;;;;;;2.42;1.92;;;32.50;40.60;;;;;;4994049;28;20061;-80
2021/06/01 11:52:02;;;;;;;2.22;2.03;;;32.70;39.10;;;;;;5012336;28;20085;-75
2021/06/01 11:54:27;;;;;;;3.40;1.63;;;31.00;40.70;;;;;;5011374;28;20033;-79
2021/06/01 11:57:22;;;;;;;2.67;1.98;;;31.20;40.40;;;;;;5012715;28;20026;-76
2021/06/01 12:18:44;;;;;;;3.03;1.52;;;32.60;39.20;;;;;;5012502;28;20110;-78
2021/06/01 12:21:20;;;;;;;3.00;1.92;;;32.90;39.20;;;;;;5011893;28;20078;-77
2021/06/01 12:23:58;;;;;;;2.00;1.67;;;34.00;38.90;;;;;;5011973;28;20034;-77
2021/06/01 12:32:17;;;;;;;3.78;1.80;;;35.20;38.40;;;;;;5011799;28;20091;-76
2021/06/01 12:43:21;;;;;;;2.22;2.03;;;33.20;40.20;;;;;;5011812;28;20065;-77
2021/06/01 13:08:22;;;;;;;2.17;1.70;;;34.50;37.80;;;;;;5011163;28;20033;-74
2021/06/01 13:22:23;;;;;;;3.50;1.70;;;33.40;40.30;;;;;;5011484;28;20041;-73
2021/06/01 13:38:50;;;;;;;3.05;2.17;;;30.60;40.60;;;;;;5010671;28;20344;-72
2021/06/01 13:46:43;;;;;;;5.47;2.00;;;32.40;39.40;;;;;;5010993;28;20033;-71
2021/06/01 13:49:25;;;;;;;3.03;2.13;;;31.90;40.40;;;;;;5010693;28;20022;-70
2021/06/01 14:32:11;;;;;;;4.00;2.13;;;34.30;38.70;;;;;;5014715;28;20030;-81
2021/06/01 15:24:41;;;;;;;3.70;1.98;;;31.80;38.60;;;;;;5013660;28;20505;-80
2021/06/01 16:31:47;;;;;;;1.88;1.77;;;32.10;39.10;;;;;;5014007;28;20095;-81
2021/06/01 17:04:51;;;;;;;2.67;2.33;;;31.00;40.30;;;;;;5011949;28;20533;-80
2021/06/01 17:13:00;;;;;;;2.67;2.17;;;29.50;42.20;;;;;;5011630;28;20099;-80
2021/06/01 17:15:26;;;;;;;1.92;1.83;;;28.80;43.00;;;;;;5026660;28;20586;-80
2021/06/01 17:18:19;;;;;;;2.60;2.03;;;28.40;43.90;;;;;;5011358;28;20081;-80
2021/06/01 17:23:43;;;;;;;4.18;3.25;;;28.70;43.80;;;;;;5011293;28;20038;-80
2021/06/01 17:32:03;;;;;;;3.10;2.15;;;27.50;44.80;;;;;;5011496;28;20080;-80
2021/06/01 17:34:43;;;;;;;6.05;2.30;;;27.00;45.40;;;;;;5010636;28;20104;-79
2021/06/01 17:37:09;;;;;;;4.88;2.13;;;26.30;46.50;;;;;;5011501;28;20092;-80
2021/06/01 17:39:36;;;;;;;4.53;2.22;;;25.90;46.90;;;;;;5011287;28;20040;-78
2021/06/01 17:42:06;;;;;;;2.00;1.75;;;25.80;47.20;;;;;;5012704;28;20033;-79
2021/06/01 17:44:32;;;;;;;4.90;2.42;;;25.60;47.50;;;;;;5011711;28;20112;-78
2021/06/01 17:47:02;;;;;;;3.00;1.95;;;25.60;47.50;;;;;;5009751;28;20018;-78
2021/06/01 17:49:29;;;;;;;5.50;2.20;;;25.50;47.50;;;;;;5009530;28;20097;-79
2021/06/01 17:51:59;;;;;;;2.35;1.95;;;25.50;47.40;;;;;;5010764;28;20022;-78
2021/06/01 17:54:26;;;;;;;3.20;2.05;;;25.60;47.60;;;;;;5012982;28;20489;-79
2021/06/01 17:56:52;;;;;;;3.00;2.25;;;25.50;47.70;;;;;;5031070;28;20182;-79
2021/06/01 17:59:22;;;;;;;3.00;1.98;;;25.50;47.30;;;;;;5028888;28;20148;-78
2021/06/01 18:01:50;;;;;;;2.53;2.33;;;25.40;47.80;;;;;;5013398;28;20022;-80
2021/06/01 18:04:22;;;;;;;5.57;2.30;;;25.30;48.00;;;;;;5013561;28;20022;-80
2021/06/01 18:06:55;;;;;;;2.75;2.05;;;25.20;47.70;;;;;;5029625;28;20022;-79
2021/06/01 19:00:03;;;;;;;2.20;1.90;;;23.80;50.50;;;;;;5008776;28;20167;-80
2021/06/01 19:24:26;;;;;;;3.20;2.47;;;22.70;53.20;;;;;;5012972;28;20030;-81
2021/06/01 19:44:12;;;;;;;4.28;3.17;;;21.80;55.40;;;;;;5009126;28;20100;-80
2021/06/01 19:52:01;;;;;;;5.40;3.20;;;21.40;56.00;;;;;;5011574;28;20018;-79
2021/06/01 19:54:31;;;;;;;3.17;2.88;;;21.30;56.50;;;;;;5010452;28;20112;-79
2021/06/01 19:56:59;;;;;;;3.70;2.50;;;21.40;55.90;;;;;;5011057;28;20160;-81
2021/06/01 19:59:28;;;;;;;2.50;2.30;;;21.40;56.40;;;;;;5011306;28;20075;-81
2021/06/01 20:01:59;;;;;;;4.25;2.95;;;21.30;56.40;;;;;;5011432;28;20025;-80
2021/06/01 20:04:27;;;;;;;7.80;2.92;;;21.20;56.80;;;;;;5011080;28;20040;-80
2021/06/01 20:06:55;;;;;;;4.10;2.50;;;21.10;56.80;;;;;;5010731;28;20026;-80
2021/06/01 20:09:22;;;;;;;3.85;2.65;;;21.10;56.90;;;;;;5010745;28;20017;-80
2021/06/01 20:11:48;;;;;;;2.97;2.58;;;20.90;57.50;;;;;;5011796;28;20188;-80
2021/06/01 20:14:17;;;;;;;3.38;3.08;;;20.80;57.60;;;;;;5011763;28;20224;-81
2021/06/01 20:16:49;;;;;;;3.65;2.83;;;20.70;58.00;;;;;;5011685;28;20025;-80
2021/06/01 20:19:19;;;;;;;4.63;3.00;;;20.50;58.50;;;;;;5027376;28;20454;-79
2021/06/01 20:21:52;;;;;;;4.13;2.83;;;20.30;59.30;;;;;;5010237;28;20073;-80
2021/06/01 20:24:21;;;;;;;3.58;2.40;;;20.20;59.60;;;;;;5010838;28;20044;-80
2021/06/01 20:26:51;;;;;;;4.15;2.65;;;20.20;59.20;;;;;;5008939;28;20021;-80
2021/06/01 20:29:22;;;;;;;4.65;2.80;;;20.10;59.40;;;;;;5008911;28;20624;-80
2021/06/01 20:33:06;;;;;;;4.10;2.75;;;20.10;59.60;;;;;;5010259;28;20110;-80